CWRX

Rowley Island Airport

Canada
METAR CWRX 172300Z AUTO 05005KT ////SM //// ////// M30/M33 A2992
Observed Flight Rules
Jan-17 @ 23:00 UTC (an hour ago)
Wind
50° at 5 knots
Temperatures Readings
Current -30°C / -22°F
Dewpoint -33°C / -27°F
Humidity 75%
Altimeter 29.92" Hg
Pressure 1013 hPa
Elevation 41
METAR CWRX 172300Z AUTO 05005KT ////SM //// ////// M30/M33 A2992
Observed Flight Rules
Jan-17 @ 23:00 UTC
(an hour ago)
Wind
50° at 5 knots
Temperature Dewpoint
-30°C / -22°F -33°C / -27°F
Humidity Altimeter Pressure
75% 29.92" Hg 1013 hPa